createdAt,value
2023-03-03T00:02:12.424Z,37.53
2023-03-03T00:04:40.489Z,33.50
2023-03-03T00:07:08.346Z,34.90
2023-03-03T00:09:36.069Z,32.28
2023-03-03T00:12:15.233Z,31.15
2023-03-03T00:14:43.212Z,29.65
2023-03-03T00:17:22.418Z,29.67
2023-03-03T00:19:51.311Z,28.60
2023-03-03T00:22:33.742Z,28.57
2023-03-03T00:25:30.103Z,25.40
2023-03-03T00:28:28.035Z,25.12
2023-03-03T00:30:59.739Z,24.05
2023-03-03T00:33:34.135Z,26.50
2023-03-03T00:36:29.588Z,20.85
2023-03-03T00:39:26.776Z,20.77
2023-03-03T00:41:55.122Z,20.45
2023-03-03T00:44:43.163Z,23.27
2023-03-03T00:47:32.276Z,24.02
2023-03-03T00:50:11.283Z,20.90
2023-03-03T00:52:47.343Z,22.20
2023-03-03T00:55:15.185Z,25.10
2023-03-03T00:57:42.935Z,19.92
2023-03-03T01:00:12.452Z,20.02
2023-03-03T01:02:40.343Z,23.57
2023-03-03T01:05:10.831Z,23.02
2023-03-03T01:07:38.458Z,22.35
2023-03-03T01:10:07.569Z,25.45
2023-03-03T01:12:35.891Z,24.07
2023-03-03T01:15:05.506Z,23.27
2023-03-03T01:17:34.128Z,23.83
2023-03-03T01:20:02.718Z,26.95
2023-03-03T01:22:30.443Z,28.12
2023-03-03T01:25:00.218Z,26.02
2023-03-03T01:27:28.222Z,24.55
2023-03-03T01:29:57.841Z,23.05
2023-03-03T01:32:26.013Z,26.75
2023-03-03T01:34:54.410Z,27.52
2023-03-03T01:37:22.460Z,24.18
2023-03-03T01:39:51.889Z,27.37
2023-03-03T01:42:22.602Z,26.17
2023-03-03T01:45:12.347Z,22.00
2023-03-03T01:48:03.617Z,28.85
2023-03-03T01:50:51.288Z,27.37
2023-03-03T01:53:22.773Z,28.73
2023-03-03T01:55:52.535Z,35.35
2023-03-03T01:58:28.054Z,49.88
2023-03-03T02:01:04.949Z,41.18
2023-03-03T02:03:34.958Z,38.50
2023-03-03T02:06:10.091Z,40.58
2023-03-03T02:09:08.378Z,32.53
2023-03-03T02:11:38.747Z,33.15
2023-03-03T02:14:06.819Z,30.08
2023-03-03T02:16:34.982Z,38.53
2023-03-03T02:19:06.453Z,35.83
2023-03-03T02:21:34.463Z,35.98
2023-03-03T02:24:19.742Z,35.17
2023-03-03T02:26:48.608Z,37.38
2023-03-03T02:29:16.573Z,39.85
2023-03-03T02:31:44.584Z,39.75
2023-03-03T02:34:12.610Z,36.70
2023-03-03T02:36:41.860Z,35.03
2023-03-03T02:39:23.536Z,33.35
2023-03-03T02:42:24.486Z,36.77
2023-03-03T02:44:54.141Z,33.65
2023-03-03T02:47:22.065Z,32.88
2023-03-03T02:49:49.869Z,33.83
2023-03-03T02:52:18.829Z,32.05
2023-03-03T02:54:47.287Z,32.83
2023-03-03T02:57:15.106Z,30.30
2023-03-03T02:59:42.958Z,33.20
2023-03-03T03:02:12.759Z,30.50
2023-03-03T03:04:40.720Z,33.50
2023-03-03T03:07:11.362Z,27.32
2023-03-03T03:09:42.500Z,28.50
2023-03-03T03:12:15.390Z,37.30
2023-03-03T03:14:43.455Z,31.10
2023-03-03T03:17:12.247Z,30.10
2023-03-03T03:19:40.891Z,30.45
2023-03-03T03:22:08.868Z,32.98
2023-03-03T03:24:36.796Z,41.28
2023-03-03T03:27:06.463Z,36.70
2023-03-03T03:29:35.057Z,37.67
2023-03-03T03:32:03.079Z,39.88
2023-03-03T03:34:30.985Z,41.35
2023-03-03T03:36:58.957Z,39.30
2023-03-03T03:39:27.481Z,41.60
2023-03-03T03:41:55.610Z,42.15
2023-03-03T03:44:24.822Z,49.73
2023-03-03T03:46:52.819Z,37.55
2023-03-03T03:49:21.164Z,39.08
2023-03-03T03:51:49.976Z,37.83
2023-03-03T03:54:19.277Z,46.02
2023-03-03T03:56:47.106Z,39.13
2023-03-03T03:59:14.983Z,49.53
2023-03-03T04:01:42.922Z,56.10
2023-03-03T04:04:10.773Z,64.35
2023-03-03T04:06:38.729Z,62.58
2023-03-03T04:09:06.958Z,59.58
2023-03-03T04:11:34.887Z,66.12
2023-03-03T04:14:03.605Z,65.83
2023-03-03T04:16:32.100Z,59.18
2023-03-03T04:19:00.028Z,58.95
2023-03-03T04:21:28.172Z,50.12
2023-03-03T04:23:57.778Z,51.50
2023-03-03T04:26:29.230Z,44.38
2023-03-03T04:29:01.161Z,49.13
2023-03-03T04:31:29.649Z,43.78
2023-03-03T04:33:57.637Z,37.63
2023-03-03T04:36:26.455Z,34.15
2023-03-03T04:38:54.597Z,31.77
2023-03-03T04:41:23.223Z,35.90
2023-03-03T04:43:51.331Z,33.58
2023-03-03T04:46:20.194Z,40.43
2023-03-03T04:48:48.574Z,42.80
2023-03-03T04:51:18.120Z,41.15
2023-03-03T04:53:46.937Z,44.20
2023-03-03T04:56:15.182Z,61.30
2023-03-03T04:58:45.364Z,50.17
2023-03-03T05:01:18.146Z,61.98
2023-03-03T05:03:46.066Z,69.70
2023-03-03T05:06:13.837Z,81.70
2023-03-03T05:08:42.744Z,104.53
2023-03-03T05:11:11.474Z,167.18
2023-03-03T05:13:39.414Z,93.20
2023-03-03T05:16:07.838Z,78.22
2023-03-03T05:18:35.875Z,70.87
2023-03-03T05:21:04.388Z,50.30
2023-03-03T05:23:32.303Z,44.33
2023-03-03T05:26:00.138Z,53.78
2023-03-03T05:28:28.743Z,39.80
2023-03-03T05:30:56.977Z,38.23
2023-03-03T05:33:25.147Z,41.55
2023-03-03T05:35:57.730Z,39.92
2023-03-03T05:38:25.868Z,40.90
2023-03-03T05:40:54.372Z,42.20
2023-03-03T05:43:22.485Z,35.60
2023-03-03T05:45:57.185Z,41.00
2023-03-03T05:48:25.413Z,40.05
2023-03-03T05:50:53.305Z,44.88
2023-03-03T05:53:21.483Z,62.55
2023-03-03T05:55:49.469Z,99.80
2023-03-03T05:58:17.535Z,92.90
2023-03-03T06:00:45.710Z,89.70
2023-03-03T06:03:13.796Z,79.60
2023-03-03T06:05:42.535Z,78.28
2023-03-03T06:08:10.379Z,60.58
2023-03-03T06:10:38.570Z,48.73
2023-03-03T06:13:07.286Z,46.88
2023-03-03T06:15:35.636Z,42.08
2023-03-03T06:18:04.943Z,49.50
2023-03-03T06:20:33.326Z,49.23
2023-03-03T06:23:01.740Z,52.93
2023-03-03T06:25:31.062Z,46.00
2023-03-03T06:27:59.157Z,58.73
2023-03-03T06:30:28.146Z,42.23
2023-03-03T06:32:56.327Z,46.00
2023-03-03T06:35:24.544Z,45.03
2023-03-03T06:37:52.582Z,42.80
2023-03-03T06:40:20.800Z,44.33
2023-03-03T06:42:49.639Z,50.12
2023-03-03T06:45:17.858Z,52.65
2023-03-03T06:47:46.289Z,52.15
2023-03-03T06:50:19.079Z,50.78
2023-03-03T06:52:47.041Z,47.80
2023-03-03T06:55:20.579Z,56.70
2023-03-03T06:57:48.993Z,50.03
2023-03-03T07:00:25.923Z,55.85
2023-03-03T07:03:01.815Z,52.20
2023-03-03T07:05:30.335Z,63.52
2023-03-03T07:07:58.946Z,46.80
2023-03-03T07:10:31.548Z,67.15
2023-03-03T07:13:04.880Z,55.05
2023-03-03T07:15:36.548Z,50.73
2023-03-03T07:18:24.627Z,54.98
2023-03-03T07:20:52.773Z,54.20
2023-03-03T07:23:41.971Z,52.80
2023-03-03T07:26:39.359Z,54.45
2023-03-03T07:29:23.061Z,47.48
2023-03-03T07:31:51.484Z,46.75
2023-03-03T07:34:42.794Z,46.33
2023-03-03T07:37:19.771Z,46.58
2023-03-03T07:39:49.605Z,45.28
2023-03-03T07:42:29.170Z,49.88
2023-03-03T07:45:26.586Z,44.77
2023-03-03T07:48:08.894Z,92.42
2023-03-03T07:50:41.677Z,84.07
2023-03-03T07:53:20.784Z,59.70
2023-03-03T07:55:49.485Z,64.95
2023-03-03T07:58:25.784Z,62.70
2023-03-03T08:01:35.771Z,65.28
2023-03-03T08:04:30.985Z,60.98
2023-03-03T08:07:02.113Z,57.17
2023-03-03T08:09:58.827Z,62.65
2023-03-03T08:12:41.226Z,53.30
2023-03-03T08:15:22.960Z,61.25
2023-03-03T08:17:54.319Z,59.03
2023-03-03T08:20:48.766Z,32.73
2023-03-03T08:23:25.657Z,28.62
2023-03-03T08:25:55.828Z,29.00
2023-03-03T08:28:24.277Z,33.92
2023-03-03T08:31:05.548Z,33.45
2023-03-03T08:33:24.173Z,26.02
2023-03-03T08:35:52.353Z,33.55
2023-03-03T08:38:24.386Z,31.07
2023-03-03T08:40:52.563Z,30.55
2023-03-03T08:43:22.531Z,40.80
2023-03-03T08:45:53.770Z,36.63
2023-03-03T08:48:26.507Z,38.75
2023-03-03T08:50:58.281Z,25.00
2023-03-03T08:53:27.663Z,32.95
2023-03-03T08:55:56.796Z,47.33
2023-03-03T08:58:34.691Z,53.90
2023-03-03T09:00:55.083Z,57.78
2023-03-03T09:03:23.396Z,46.45
2023-03-03T09:05:51.280Z,47.08
2023-03-03T09:08:19.692Z,51.60
2023-03-03T09:10:49.632Z,52.50
2023-03-03T09:13:22.087Z,35.45
2023-03-03T09:15:50.277Z,35.83
2023-03-03T09:18:37.245Z,35.45
2023-03-03T09:21:32.728Z,45.90
2023-03-03T09:24:08.990Z,49.30
2023-03-03T09:26:48.839Z,51.37
2023-03-03T09:29:34.273Z,47.35
2023-03-03T09:32:37.689Z,44.65
2023-03-03T09:35:42.925Z,35.70
2023-03-03T09:38:32.344Z,28.83
2023-03-03T09:41:23.999Z,31.35
2023-03-03T09:44:27.568Z,41.95
2023-03-03T09:47:06.865Z,25.32
2023-03-03T09:50:02.704Z,26.15
2023-03-03T09:53:04.900Z,17.92
2023-03-03T09:55:56.677Z,20.62
2023-03-03T09:58:47.058Z,22.27
2023-03-03T10:01:44.883Z,47.05
2023-03-03T10:04:36.351Z,22.02
2023-03-03T10:07:24.484Z,15.75
2023-03-03T10:10:16.928Z,23.87
2023-03-03T10:13:04.629Z,15.18
2023-03-03T10:16:00.580Z,16.67
2023-03-03T10:21:20.692Z,21.20
2023-03-03T10:23:59.424Z,18.25
2023-03-03T10:27:05.261Z,15.43
2023-03-03T10:29:46.205Z,25.90
2023-03-03T10:32:28.972Z,14.98
2023-03-03T10:35:45.658Z,14.33
2023-03-03T10:38:35.541Z,13.90
2023-03-03T10:41:39.024Z,18.35
2023-03-03T10:44:38.042Z,23.22
2023-03-03T10:47:20.397Z,14.78
2023-03-03T10:50:33.812Z,21.17
2023-03-03T10:53:31.508Z,13.55
2023-03-03T10:56:23.053Z,21.70
2023-03-03T10:59:02.133Z,8.78
2023-03-03T11:02:07.233Z,22.62
2023-03-03T11:05:12.380Z,13.30
2023-03-03T11:07:48.481Z,12.40
2023-03-03T11:10:27.936Z,17.40
2023-03-03T11:13:03.119Z,12.98
2023-03-03T11:15:45.513Z,13.08
2023-03-03T11:18:34.021Z,14.28
2023-03-03T11:21:21.921Z,16.45
2023-03-03T11:24:15.183Z,11.35
2023-03-03T11:27:17.134Z,35.15
2023-03-03T11:30:16.453Z,13.20
2023-03-03T11:32:52.516Z,12.70
2023-03-03T11:35:27.803Z,14.87
2023-03-03T11:40:56.419Z,17.02
2023-03-03T11:43:42.299Z,13.88
2023-03-03T11:49:09.097Z,12.10
2023-03-03T11:52:03.548Z,22.80
2023-03-03T11:54:42.793Z,15.93
2023-03-03T11:57:25.330Z,23.32
2023-03-03T12:00:13.846Z,31.37
2023-03-03T12:03:10.170Z,23.55
2023-03-03T12:05:49.776Z,12.73
2023-03-03T12:08:37.986Z,23.60
2023-03-03T12:11:29.566Z,17.00
2023-03-03T12:14:26.627Z,15.13
2023-03-03T12:17:03.346Z,12.03
2023-03-03T12:19:53.485Z,10.65
2023-03-03T12:22:33.807Z,10.32
2023-03-03T12:25:28.175Z,12.15
2023-03-03T12:28:10.295Z,9.50
2023-03-03T12:31:15.735Z,9.45
2023-03-03T12:33:56.313Z,7.08
2023-03-03T12:36:47.292Z,10.03
2023-03-03T12:39:38.666Z,11.75
2023-03-03T12:42:43.844Z,14.20
2023-03-03T12:45:35.435Z,13.62
2023-03-03T12:48:32.583Z,19.35
2023-03-03T12:51:22.502Z,12.45
2023-03-03T12:54:37.202Z,10.63
2023-03-03T12:57:31.832Z,13.83
2023-03-03T13:00:23.730Z,9.15
2023-03-03T13:03:02.972Z,20.75
2023-03-03T13:06:05.802Z,13.38
2023-03-03T13:09:01.751Z,11.63
2023-03-03T13:14:20.900Z,7.53
2023-03-03T13:16:56.712Z,12.93
2023-03-03T13:19:30.237Z,40.80
2023-03-03T13:22:09.050Z,21.57
2023-03-03T13:24:58.954Z,9.88
2023-03-03T13:27:35.253Z,51.45
2023-03-03T13:30:17.432Z,103.00
2023-03-03T13:32:59.066Z,54.30
2023-03-03T13:35:44.074Z,13.25
2023-03-03T13:38:16.979Z,12.47
2023-03-03T13:40:52.677Z,8.80
2023-03-03T13:43:27.447Z,15.35
2023-03-03T13:46:29.776Z,9.58
2023-03-03T13:49:25.682Z,21.05
2023-03-03T13:55:02.976Z,12.35
2023-03-03T13:57:41.693Z,12.30
2023-03-03T14:00:30.279Z,18.40
2023-03-03T14:03:28.916Z,19.12
2023-03-03T14:06:09.218Z,14.73
2023-03-03T14:08:55.005Z,13.18
2023-03-03T14:14:24.703Z,15.13
2023-03-03T14:17:25.289Z,32.65
2023-03-03T14:20:13.593Z,12.58
2023-03-03T14:22:54.777Z,10.93
2023-03-03T14:25:22.458Z,11.57
2023-03-03T14:28:01.551Z,14.68
2023-03-03T14:30:45.147Z,14.60
2023-03-03T14:33:18.146Z,15.20
2023-03-03T14:36:00.073Z,12.60
2023-03-03T14:38:38.869Z,14.98
2023-03-03T14:41:14.766Z,19.95
2023-03-03T14:44:12.112Z,26.27
2023-03-03T14:46:41.337Z,22.55
2023-03-03T14:49:30.019Z,25.50
2023-03-03T14:52:23.186Z,19.87
2023-03-03T14:54:59.344Z,12.07
2023-03-03T14:57:47.273Z,13.58
2023-03-03T15:00:23.602Z,11.93
2023-03-03T15:03:23.229Z,14.05
2023-03-03T15:05:57.427Z,16.65
2023-03-03T15:08:35.502Z,10.50
2023-03-03T15:11:20.362Z,20.97
2023-03-03T15:13:48.287Z,15.55
2023-03-03T15:16:23.598Z,13.40
2023-03-03T15:19:02.693Z,15.88
2023-03-03T15:21:34.820Z,11.83
2023-03-03T15:24:14.578Z,19.10
2023-03-03T15:26:56.337Z,14.70
2023-03-03T15:29:44.239Z,20.17
2023-03-03T15:32:30.947Z,15.98
2023-03-03T15:35:16.194Z,19.37
2023-03-03T15:37:58.618Z,28.85
2023-03-03T15:40:49.090Z,20.85
2023-03-03T15:43:45.260Z,22.48
2023-03-03T15:46:33.533Z,22.98
2023-03-03T15:49:24.877Z,19.82
2023-03-03T15:52:05.036Z,27.22
2023-03-03T15:55:04.079Z,49.53
2023-03-03T15:57:40.690Z,30.48
2023-03-03T16:00:54.898Z,24.45
2023-03-03T16:03:36.207Z,26.52
2023-03-03T16:06:18.292Z,29.92
2023-03-03T16:09:05.795Z,38.80
2023-03-03T16:12:12.500Z,33.58
2023-03-03T16:15:13.097Z,31.95
2023-03-03T16:18:00.857Z,35.65
2023-03-03T16:20:37.228Z,79.10
2023-03-03T16:23:35.298Z,40.10
2023-03-03T16:26:28.511Z,42.58
2023-03-03T16:29:14.167Z,51.53
2023-03-03T16:31:59.405Z,78.85
2023-03-03T16:34:32.552Z,66.57
2023-03-03T16:37:31.789Z,59.80
2023-03-03T16:40:24.605Z,58.33
2023-03-03T16:43:16.103Z,56.73
2023-03-03T16:45:47.312Z,48.75
2023-03-03T16:48:47.302Z,63.58
2023-03-03T16:51:46.049Z,55.63
2023-03-03T16:54:57.341Z,48.17
2023-03-03T16:57:47.998Z,52.40
2023-03-03T17:00:23.429Z,75.70
2023-03-03T17:03:24.714Z,98.92
2023-03-03T17:06:03.689Z,153.47
2023-03-03T17:09:02.285Z,151.87
2023-03-03T17:11:39.011Z,178.15
2023-03-03T17:14:18.729Z,154.32
2023-03-03T17:17:16.788Z,142.95
2023-03-03T17:19:56.894Z,162.15
2023-03-03T17:23:01.179Z,165.25
2023-03-03T17:25:57.380Z,124.00
2023-03-03T17:29:06.501Z,110.15
2023-03-03T17:31:46.682Z,123.40
2023-03-03T17:34:40.454Z,119.62
2023-03-03T17:37:33.861Z,120.87
2023-03-03T17:40:16.386Z,138.35
2023-03-03T17:42:55.896Z,140.88
2023-03-03T17:45:27.831Z,90.60
2023-03-03T17:48:10.229Z,88.72
2023-03-03T17:50:43.394Z,69.22
2023-03-03T17:53:37.638Z,65.40
2023-03-03T17:56:13.493Z,66.33
2023-03-03T17:59:04.446Z,59.10
2023-03-03T18:02:03.495Z,59.67
2023-03-03T18:04:56.999Z,67.12
2023-03-03T18:07:48.091Z,101.10
2023-03-03T18:10:42.977Z,92.85
2023-03-03T18:13:33.695Z,109.72
2023-03-03T18:16:19.424Z,98.97
2023-03-03T18:19:21.931Z,92.08
2023-03-03T18:22:07.223Z,82.40
2023-03-03T18:24:43.145Z,86.05
2023-03-03T18:27:37.128Z,90.53
2023-03-03T18:30:24.368Z,72.22
2023-03-03T18:33:00.850Z,84.28
2023-03-03T18:35:45.447Z,87.97
2023-03-03T18:38:29.108Z,122.30
2023-03-03T18:41:01.181Z,118.45
2023-03-03T18:43:47.863Z,127.02
2023-03-03T18:46:27.716Z,137.77
2023-03-03T18:49:08.818Z,129.80
2023-03-03T18:51:46.868Z,131.50
2023-03-03T18:54:25.024Z,126.05
2023-03-03T18:57:03.416Z,148.40
2023-03-03T18:59:40.564Z,156.72
2023-03-03T19:02:38.482Z,158.82
2023-03-03T19:05:20.407Z,175.50
2023-03-03T19:08:05.094Z,177.47
2023-03-03T19:10:50.363Z,184.50
2023-03-03T19:13:38.209Z,170.50
2023-03-03T19:16:28.128Z,195.57
2023-03-03T19:19:04.303Z,175.12
2023-03-03T19:21:35.437Z,206.75
2023-03-03T19:24:27.391Z,435.87
2023-03-03T19:27:27.381Z,251.92
2023-03-03T19:30:40.756Z,281.35
2023-03-03T19:33:35.331Z,186.62
2023-03-03T19:36:35.976Z,168.10
2023-03-03T19:39:24.032Z,166.10
2023-03-03T19:42:18.074Z,197.47
2023-03-03T19:45:07.336Z,215.22
2023-03-03T19:48:06.577Z,196.02
2023-03-03T19:50:44.846Z,177.05
2023-03-03T19:53:40.585Z,170.92
2023-03-03T19:56:45.754Z,186.82
2023-03-03T19:59:19.226Z,222.37
2023-03-03T20:02:04.265Z,210.97
2023-03-03T20:05:02.044Z,223.53
2023-03-03T20:07:44.163Z,342.25
2023-03-03T20:10:45.666Z,239.72
2023-03-03T20:13:51.311Z,185.73
2023-03-03T20:16:42.218Z,186.73
2023-03-03T20:19:44.218Z,184.82
2023-03-03T20:22:43.493Z,175.72
2023-03-03T20:25:28.930Z,199.17
2023-03-03T20:28:39.689Z,187.43
2023-03-03T20:31:33.440Z,198.38
2023-03-03T20:34:13.092Z,194.20
2023-03-03T20:37:08.221Z,160.12
2023-03-03T20:40:08.995Z,143.37
2023-03-03T20:43:12.665Z,133.78
2023-03-03T20:46:01.021Z,125.33
2023-03-03T20:48:46.542Z,115.03
2023-03-03T20:51:19.666Z,108.27
2023-03-03T20:54:02.310Z,108.47
2023-03-03T20:56:51.021Z,102.40
2023-03-03T20:59:31.119Z,95.57
2023-03-03T21:02:16.919Z,101.27
2023-03-03T21:04:45.317Z,94.47
2023-03-03T21:07:26.475Z,106.52
2023-03-03T21:10:16.931Z,135.12
2023-03-03T21:12:45.180Z,200.82
2023-03-03T21:15:30.187Z,191.75
2023-03-03T21:17:59.662Z,167.32
2023-03-03T21:20:34.894Z,133.40
2023-03-03T21:23:03.400Z,120.08
2023-03-03T21:25:44.380Z,115.45
2023-03-03T21:28:32.440Z,115.28
2023-03-03T21:31:17.760Z,128.93
2023-03-03T21:33:57.707Z,127.32
2023-03-03T21:36:40.284Z,126.12
2023-03-03T21:39:28.568Z,128.55
2023-03-03T21:42:15.634Z,115.28
2023-03-03T21:44:51.316Z,120.62
2023-03-03T21:47:22.383Z,157.97
2023-03-03T21:49:51.975Z,185.15
2023-03-03T21:52:27.642Z,245.42
2023-03-03T21:54:55.726Z,205.20
2023-03-03T21:57:25.582Z,158.35
2023-03-03T21:59:53.765Z,126.92
2023-03-03T22:02:21.663Z,114.37
2023-03-03T22:04:51.479Z,104.63
2023-03-03T22:07:19.209Z,110.30
2023-03-03T22:09:51.254Z,104.43
2023-03-03T22:12:19.105Z,101.40
2023-03-03T22:14:46.721Z,133.78
2023-03-03T22:17:14.940Z,130.47
2023-03-03T22:19:43.106Z,131.72
2023-03-03T22:22:13.893Z,137.47
2023-03-03T22:24:41.710Z,128.47
2023-03-03T22:27:11.697Z,107.60
2023-03-03T22:29:39.771Z,109.92
2023-03-03T22:32:07.506Z,107.20
2023-03-03T22:34:37.530Z,102.00
2023-03-03T22:37:05.272Z,100.10
2023-03-03T22:39:32.933Z,101.67
2023-03-03T22:42:00.694Z,99.80
2023-03-03T22:44:28.621Z,106.97
2023-03-03T22:46:56.709Z,102.40
2023-03-03T22:49:24.591Z,99.67
2023-03-03T22:51:52.668Z,108.63
2023-03-03T22:54:20.388Z,105.22
2023-03-03T22:56:47.973Z,106.45
2023-03-03T22:59:15.541Z,112.47
2023-03-03T23:01:43.211Z,107.17
2023-03-03T23:04:10.953Z,102.95
2023-03-03T23:06:38.740Z,115.30
2023-03-03T23:09:07.408Z,110.37
2023-03-03T23:11:35.063Z,106.45
2023-03-03T23:14:02.743Z,111.32
2023-03-03T23:16:30.421Z,109.48
2023-03-03T23:18:58.049Z,97.85
2023-03-03T23:21:25.775Z,86.50
2023-03-03T23:23:53.374Z,93.22
2023-03-03T23:26:21.242Z,82.75
2023-03-03T23:28:48.794Z,80.17
2023-03-03T23:31:16.501Z,75.65
2023-03-03T23:33:44.025Z,76.75
2023-03-03T23:36:12.614Z,82.08
2023-03-03T23:38:42.709Z,79.50
2023-03-03T23:41:09.905Z,82.57
2023-03-03T23:43:37.489Z,78.47
2023-03-03T23:46:05.280Z,78.67
2023-03-03T23:48:32.955Z,82.42
2023-03-03T23:51:01.036Z,84.32
2023-03-03T23:53:28.783Z,84.22
2023-03-03T23:55:56.487Z,90.12
2023-03-03T23:58:23.910Z,103.62
